sensor_id;sensor_type;location;lat;lon;timestamp;pressure;altitude;pressure_sealevel;temperature;humidity
78603;BME280;68102;46.068;18.206;2023-03-17T00:00:09;101007.47;;;3.30;46.49
78603;BME280;68102;46.068;18.206;2023-03-17T00:00:44;101017.69;;;3.34;46.76
78603;BME280;68102;46.068;18.206;2023-03-17T00:01:18;101021.19;;;3.35;46.84
78603;BME280;68102;46.068;18.206;2023-03-17T00:01:52;101015.97;;;3.35;46.97
78603;BME280;68102;46.068;18.206;2023-03-17T00:02:25;101010.06;;;3.30;46.91
78603;BME280;68102;46.068;18.206;2023-03-17T00:02:57;101025.53;;;3.34;46.29
78603;BME280;68102;46.068;18.206;2023-03-17T00:03:34;101018.63;;;3.33;46.61
78603;BME280;68102;46.068;18.206;2023-03-17T00:04:11;101021.34;;;3.30;46.84
78603;BME280;68102;46.068;18.206;2023-03-17T00:04:43;101027.25;;;3.36;46.32
78603;BME280;68102;46.068;18.206;2023-03-17T00:05:15;101019.44;;;3.36;46.57
78603;BME280;68102;46.068;18.206;2023-03-17T00:05:48;101025.53;;;3.34;46.13
78603;BME280;68102;46.068;18.206;2023-03-17T00:06:27;101019.47;;;3.34;46.51
78603;BME280;68102;46.068;18.206;2023-03-17T00:06:59;101021.97;;;3.37;46.21
78603;BME280;68102;46.068;18.206;2023-03-17T00:07:31;101016.91;;;3.32;46.19
78603;BME280;68102;46.068;18.206;2023-03-17T00:08:10;101023.13;;;3.30;46.96
78603;BME280;68102;46.068;18.206;2023-03-17T00:08:43;101020.31;;;3.34;46.92
78603;BME280;68102;46.068;18.206;2023-03-17T00:09:18;101014.25;;;3.34;46.82
78603;BME280;68102;46.068;18.206;2023-03-17T00:09:50;101024.69;;;3.34;46.54
78603;BME280;68102;46.068;18.206;2023-03-17T00:10:23;101020.38;;;3.33;46.54
78603;BME280;68102;46.068;18.206;2023-03-17T00:10:56;101020.44;;;3.31;46.54
78603;BME280;68102;46.068;18.206;2023-03-17T00:11:27;101022.97;;;3.33;46.99
78603;BME280;68102;46.068;18.206;2023-03-17T00:11:59;101019.59;;;3.31;46.58
78603;BME280;68102;46.068;18.206;2023-03-17T00:12:31;101016.06;;;3.32;47.18
78603;BME280;68102;46.068;18.206;2023-03-17T00:13:03;101022.13;;;3.32;46.90
78603;BME280;68102;46.068;18.206;2023-03-17T00:13:35;101010.91;;;3.30;47.09
78603;BME280;68102;46.068;18.206;2023-03-17T00:14:06;101011.25;;;3.23;46.45
78603;BME280;68102;46.068;18.206;2023-03-17T00:14:38;101013.66;;;3.27;46.77
78603;BME280;68102;46.068;18.206;2023-03-17T00:15:11;101024.09;;;3.27;46.91
78603;BME280;68102;46.068;18.206;2023-03-17T00:15:52;101013.66;;;3.27;47.15
78603;BME280;68102;46.068;18.206;2023-03-17T00:16:26;101011.13;;;3.26;47.21
78603;BME280;68102;46.068;18.206;2023-03-17T00:16:59;101015.34;;;3.28;47.40
78603;BME280;68102;46.068;18.206;2023-03-17T00:17:31;101018.88;;;3.27;47.46
78603;BME280;68102;46.068;18.206;2023-03-17T00:18:03;101019.59;;;3.31;47.53
78603;BME280;68102;46.068;18.206;2023-03-17T00:18:36;101014.75;;;3.22;47.02
78603;BME280;68102;46.068;18.206;2023-03-17T00:19:15;101019.00;;;3.24;47.63
78603;BME280;68102;46.068;18.206;2023-03-17T00:19:47;101021.34;;;3.30;47.26
78603;BME280;68102;46.068;18.206;2023-03-17T00:20:25;101016.31;;;3.26;47.18
78603;BME280;68102;46.068;18.206;2023-03-17T00:20:58;101013.72;;;3.26;47.03
78603;BME280;68102;46.068;18.206;2023-03-17T00:21:32;101013.84;;;3.23;47.20
78603;BME280;68102;46.068;18.206;2023-03-17T00:22:14;101017.38;;;3.22;48.12
78603;BME280;68102;46.068;18.206;2023-03-17T00:22:47;101008.69;;;3.21;48.11
78603;BME280;68102;46.068;18.206;2023-03-17T00:23:21;101014.88;;;3.19;47.78
78603;BME280;68102;46.068;18.206;2023-03-17T00:23:55;101020.03;;;3.20;47.34
78603;BME280;68102;46.068;18.206;2023-03-17T00:24:28;101014.94;;;3.17;47.08
78603;BME280;68102;46.068;18.206;2023-03-17T00:25:00;101011.59;;;3.14;47.65
78603;BME280;68102;46.068;18.206;2023-03-17T00:25:33;101013.19;;;3.18;47.96
78603;BME280;68102;46.068;18.206;2023-03-17T00:26:05;101017.50;;;3.19;47.60
78603;BME280;68102;46.068;18.206;2023-03-17T00:26:37;101011.50;;;3.17;47.20
78603;BME280;68102;46.068;18.206;2023-03-17T00:27:13;101005.44;;;3.16;47.62
78603;BME280;68102;46.068;18.206;2023-03-17T00:27:44;101008.91;;;3.15;48.00
78603;BME280;68102;46.068;18.206;2023-03-17T00:28:50;101015.75;;;3.19;48.02
78603;BME280;68102;46.068;18.206;2023-03-17T00:29:23;101007.13;;;3.17;48.34
78603;BME280;68102;46.068;18.206;2023-03-17T00:29:55;101004.56;;;3.16;47.93
78603;BME280;68102;46.068;18.206;2023-03-17T00:30:28;101006.28;;;3.17;47.93
78603;BME280;68102;46.068;18.206;2023-03-17T00:31:10;101002.13;;;3.11;48.32
78603;BME280;68102;46.068;18.206;2023-03-17T00:31:44;101003.69;;;3.15;48.19
78603;BME280;68102;46.068;18.206;2023-03-17T00:32:17;101003.75;;;3.14;48.18
78603;BME280;68102;46.068;18.206;2023-03-17T00:32:55;101007.22;;;3.14;47.92
78603;BME280;68102;46.068;18.206;2023-03-17T00:33:29;101004.69;;;3.13;48.56
78603;BME280;68102;46.068;18.206;2023-03-17T00:34:03;100997.63;;;3.15;48.09
78603;BME280;68102;46.068;18.206;2023-03-17T00:34:36;101001.09;;;3.15;47.82
78603;BME280;68102;46.068;18.206;2023-03-17T00:35:18;101008.03;;;3.16;47.55
78603;BME280;68102;46.068;18.206;2023-03-17T00:35:51;101002.00;;;3.14;48.31
78603;BME280;68102;46.068;18.206;2023-03-17T00:36:26;101001.09;;;3.15;48.51
78603;BME280;68102;46.068;18.206;2023-03-17T00:36:58;100997.03;;;3.08;48.28
78603;BME280;68102;46.068;18.206;2023-03-17T00:37:32;101003.69;;;3.15;47.98
78603;BME280;68102;46.068;18.206;2023-03-17T00:38:05;100995.22;;;3.10;47.92
78603;BME280;68102;46.068;18.206;2023-03-17T00:38:37;101001.16;;;3.14;48.00
78603;BME280;68102;46.068;18.206;2023-03-17T00:39:14;100995.16;;;3.12;48.14
78603;BME280;68102;46.068;18.206;2023-03-17T00:39:45;100995.09;;;3.13;48.12
78603;BME280;68102;46.068;18.206;2023-03-17T00:40:51;101002.06;;;3.13;47.99
78603;BME280;68102;46.068;18.206;2023-03-17T00:41:24;100996.78;;;3.14;47.61
78603;BME280;68102;46.068;18.206;2023-03-17T00:41:56;101001.16;;;3.14;47.72
78603;BME280;68102;46.068;18.206;2023-03-17T00:42:27;100997.69;;;3.13;47.54
78603;BME280;68102;46.068;18.206;2023-03-17T00:42:59;101002.00;;;3.14;48.06
78603;BME280;68102;46.068;18.206;2023-03-17T00:43:33;100999.47;;;3.13;47.43
78603;BME280;68102;46.068;18.206;2023-03-17T00:44:04;100995.22;;;3.10;48.13
78603;BME280;68102;46.068;18.206;2023-03-17T00:44:36;100997.69;;;3.13;47.21
78603;BME280;68102;46.068;18.206;2023-03-17T00:45:08;101000.22;;;3.16;47.65
78603;BME280;68102;46.068;18.206;2023-03-17T00:45:41;100995.09;;;3.13;47.97
78603;BME280;68102;46.068;18.206;2023-03-17T00:46:22;100997.69;;;3.13;47.71
78603;BME280;68102;46.068;18.206;2023-03-17T00:46:55;100993.25;;;3.17;47.03
78603;BME280;68102;46.068;18.206;2023-03-17T00:47:27;100991.50;;;3.16;47.93
78603;BME280;68102;46.068;18.206;2023-03-17T00:47:59;100995.00;;;3.16;48.14
78603;BME280;68102;46.068;18.206;2023-03-17T00:48:31;100992.38;;;3.16;47.61
78603;BME280;68102;46.068;18.206;2023-03-17T00:49:13;100989.78;;;3.16;48.17
78603;BME280;68102;46.068;18.206;2023-03-17T00:49:46;100995.00;;;3.16;47.85
78603;BME280;68102;46.068;18.206;2023-03-17T00:50:21;100988.06;;;3.15;47.59
78603;BME280;68102;46.068;18.206;2023-03-17T00:50:54;100983.88;;;3.11;47.67
78603;BME280;68102;46.068;18.206;2023-03-17T00:51:26;100986.63;;;3.08;47.66
78603;BME280;68102;46.068;18.206;2023-03-17T00:51:58;100982.97;;;3.12;47.80
78603;BME280;68102;46.068;18.206;2023-03-17T00:52:30;100989.94;;;3.12;48.29
78603;BME280;68102;46.068;18.206;2023-03-17T00:53:05;100990.78;;;3.12;47.82
78603;BME280;68102;46.068;18.206;2023-03-17T00:53:41;100986.47;;;3.11;47.70
78603;BME280;68102;46.068;18.206;2023-03-17T00:54:14;100986.63;;;3.08;47.77
78603;BME280;68102;46.068;18.206;2023-03-17T00:54:46;100986.56;;;3.10;47.92
78603;BME280;68102;46.068;18.206;2023-03-17T00:55:19;100987.47;;;3.09;47.39
78603;BME280;68102;46.068;18.206;2023-03-17T00:55:51;100989.03;;;3.13;47.46
78603;BME280;68102;46.068;18.206;2023-03-17T00:56:23;100991.69;;;3.11;47.50
78603;BME280;68102;46.068;18.206;2023-03-17T00:56:55;100993.41;;;3.12;47.77
78603;BME280;68102;46.068;18.206;2023-03-17T00:57:27;100990.97;;;3.08;48.72
78603;BME280;68102;46.068;18.206;2023-03-17T00:57:59;100990.84;;;3.11;49.11
78603;BME280;68102;46.068;18.206;2023-03-17T00:58:32;100990.13;;;3.07;48.90
78603;BME280;68102;46.068;18.206;2023-03-17T00:59:16;100989.28;;;3.07;48.92
78603;BME280;68102;46.068;18.206;2023-03-17T00:59:49;100984.06;;;3.07;48.67
78603;BME280;68102;46.068;18.206;2023-03-17T01:00:27;100996.06;;;3.11;48.92
78603;BME280;68102;46.068;18.206;2023-03-17T01:01:00;100996.00;;;3.12;49.16
78603;BME280;68102;46.068;18.206;2023-03-17T01:01:32;100988.19;;;3.12;48.08
78603;BME280;68102;46.068;18.206;2023-03-17T01:02:04;100996.78;;;3.14;48.14
78603;BME280;68102;46.068;18.206;2023-03-17T01:02:36;100977.94;;;3.08;47.58
78603;BME280;68102;46.068;18.206;2023-03-17T01:03:10;100988.06;;;3.15;48.69
78603;BME280;68102;46.068;18.206;2023-03-17T01:03:43;100987.22;;;3.15;48.72
78603;BME280;68102;46.068;18.206;2023-03-17T01:04:15;100984.13;;;3.05;49.76
78603;BME280;68102;46.068;18.206;2023-03-17T01:04:47;100990.38;;;3.01;49.85
78603;BME280;68102;46.068;18.206;2023-03-17T01:05:34;100989.03;;;2.91;49.79
78603;BME280;68102;46.068;18.206;2023-03-17T01:06:08;100988.38;;;2.86;50.02
78603;BME280;68102;46.068;18.206;2023-03-17T01:06:41;100982.50;;;2.81;50.20
78603;BME280;68102;46.068;18.206;2023-03-17T01:07:14;100983.56;;;2.75;51.06
78603;BME280;68102;46.068;18.206;2023-03-17T01:07:47;100983.81;;;2.69;50.62
78603;BME280;68102;46.068;18.206;2023-03-17T01:08:23;100971.69;;;2.68;51.28
78603;BME280;68102;46.068;18.206;2023-03-17T01:08:56;100976.84;;;2.69;50.88
78603;BME280;68102;46.068;18.206;2023-03-17T01:09:28;100986.72;;;2.61;51.88
78603;BME280;68102;46.068;18.206;2023-03-17T01:10:02;100986.81;;;2.58;51.95
78603;BME280;68102;46.068;18.206;2023-03-17T01:10:34;100978.34;;;2.53;52.34
78603;BME280;68102;46.068;18.206;2023-03-17T01:11:14;100981.19;;;2.47;52.54
78603;BME280;68102;46.068;18.206;2023-03-17T01:11:46;100975.41;;;2.39;52.98
78603;BME280;68102;46.068;18.206;2023-03-17T01:12:19;100973.81;;;2.35;52.85
78603;BME280;68102;46.068;18.206;2023-03-17T01:12:52;100986.06;;;2.33;53.00
78603;BME280;68102;46.068;18.206;2023-03-17T01:13:24;100975.75;;;2.30;51.31
78603;BME280;68102;46.068;18.206;2023-03-17T01:13:56;100986.06;;;2.33;53.16
78603;BME280;68102;46.068;18.206;2023-03-17T01:14:27;100986.19;;;2.30;53.41
78603;BME280;68102;46.068;18.206;2023-03-17T01:14:59;100978.47;;;2.27;53.66
78603;BME280;68102;46.068;18.206;2023-03-17T01:15:32;100981.94;;;2.27;52.25
78603;BME280;68102;46.068;18.206;2023-03-17T01:16:08;100974.31;;;2.21;53.19
78603;BME280;68102;46.068;18.206;2023-03-17T01:16:40;100988.19;;;2.22;53.66
78603;BME280;68102;46.068;18.206;2023-03-17T01:17:16;100979.78;;;2.15;53.54
78603;BME280;68102;46.068;18.206;2023-03-17T01:17:50;100978.13;;;2.12;53.90
78603;BME280;68102;46.068;18.206;2023-03-17T01:18:23;100975.41;;;2.16;54.21
78603;BME280;68102;46.068;18.206;2023-03-17T01:18:55;100976.31;;;2.15;53.96
78603;BME280;68102;46.068;18.206;2023-03-17T01:19:26;100970.13;;;2.17;53.98
78603;BME280;68102;46.068;18.206;2023-03-17T01:19:58;100974.72;;;2.10;54.10
78603;BME280;68102;46.068;18.206;2023-03-17T01:20:32;100969.63;;;2.07;54.32
78603;BME280;68102;46.068;18.206;2023-03-17T01:21:05;100961.97;;;2.03;54.59
78603;BME280;68102;46.068;18.206;2023-03-17T01:21:37;100962.09;;;2.00;54.83
78603;BME280;68102;46.068;18.206;2023-03-17T01:22:09;100969.63;;;2.07;54.86
78603;BME280;68102;46.068;18.206;2023-03-17T01:22:41;100968.00;;;2.05;55.29
78603;BME280;68102;46.068;18.206;2023-03-17T01:23:16;100968.94;;;2.02;54.99
78603;BME280;68102;46.068;18.206;2023-03-17T01:23:48;100967.34;;;1.98;54.92
78603;BME280;68102;46.068;18.206;2023-03-17T01:24:19;100972.69;;;1.95;55.26
78603;BME280;68102;46.068;18.206;2023-03-17T01:24:51;100972.72;;;1.94;54.72
78603;BME280;68102;46.068;18.206;2023-03-17T01:25:23;100972.84;;;1.91;55.50
78603;BME280;68102;46.068;18.206;2023-03-17T01:25:55;100977.22;;;1.90;55.11
78603;BME280;68102;46.068;18.206;2023-03-17T01:26:27;100973.69;;;1.91;54.57
78603;BME280;68102;46.068;18.206;2023-03-17T01:26:59;100966.09;;;1.85;55.06
78603;BME280;68102;46.068;18.206;2023-03-17T01:27:34;100967.94;;;1.81;55.71
78603;BME280;68102;46.068;18.206;2023-03-17T01:28:08;100970.66;;;1.78;55.49
78603;BME280;68102;46.068;18.206;2023-03-17T01:28:41;100968.19;;;1.75;56.01
78603;BME280;68102;46.068;18.206;2023-03-17T01:29:13;100979.38;;;1.77;55.87
78603;BME280;68102;46.068;18.206;2023-03-17T01:29:45;100976.94;;;1.73;56.05
78603;BME280;68102;46.068;18.206;2023-03-17T01:30:55;100973.66;;;1.68;55.89
78603;BME280;68102;46.068;18.206;2023-03-17T01:31:27;100971.19;;;1.63;56.21
78603;BME280;68102;46.068;18.206;2023-03-17T01:31:59;100973.91;;;1.60;56.33
78603;BME280;68102;46.068;18.206;2023-03-17T01:32:31;100976.56;;;1.59;55.91
78603;BME280;68102;46.068;18.206;2023-03-17T01:33:05;100978.38;;;1.57;56.00
78603;BME280;68102;46.068;18.206;2023-03-17T01:33:37;100978.38;;;1.57;56.44
78603;BME280;68102;46.068;18.206;2023-03-17T01:34:08;100982.84;;;1.53;56.56
78603;BME280;68102;46.068;18.206;2023-03-17T01:34:40;100966.56;;;1.46;56.20
78603;BME280;68102;46.068;18.206;2023-03-17T01:35:12;100980.47;;;1.45;56.38
78603;BME280;68102;46.068;18.206;2023-03-17T01:35:44;100976.34;;;1.40;56.26
78603;BME280;68102;46.068;18.206;2023-03-17T01:36:16;100975.59;;;1.36;56.35
78603;BME280;68102;46.068;18.206;2023-03-17T01:36:48;100975.66;;;1.35;56.48
78603;BME280;68102;46.068;18.206;2023-03-17T01:37:20;100972.19;;;1.34;56.46
78603;BME280;68102;46.068;18.206;2023-03-17T01:37:52;100976.66;;;1.31;57.21
78603;BME280;68102;46.068;18.206;2023-03-17T01:38:24;100973.22;;;1.29;57.11
78603;BME280;68102;46.068;18.206;2023-03-17T01:38:56;100976.59;;;1.32;57.43
78603;BME280;68102;46.068;18.206;2023-03-17T01:39:27;100975.88;;;1.27;57.02
78603;BME280;68102;46.068;18.206;2023-03-17T01:40:00;100977.75;;;1.24;57.50
78603;BME280;68102;46.068;18.206;2023-03-17T01:40:33;100983.03;;;1.20;57.24
78603;BME280;68102;46.068;18.206;2023-03-17T01:41:07;100969.31;;;1.17;57.37
78603;BME280;68102;46.068;18.206;2023-03-17T01:41:41;100977.00;;;1.20;57.54
78603;BME280;68102;46.068;18.206;2023-03-17T01:42:13;100977.16;;;1.15;57.14
78603;BME280;68102;46.068;18.206;2023-03-17T01:42:53;100984.00;;;1.18;57.36
78603;BME280;68102;46.068;18.206;2023-03-17T01:43:29;100977.06;;;1.18;57.18
78603;BME280;68102;46.068;18.206;2023-03-17T01:44:02;100982.31;;;1.17;57.33
78603;BME280;68102;46.068;18.206;2023-03-17T01:44:34;100981.56;;;1.13;57.71
78603;BME280;68102;46.068;18.206;2023-03-17T01:46:04;100977.38;;;1.08;57.54
78603;BME280;68102;46.068;18.206;2023-03-17T01:46:52;100988.78;;;1.04;57.67
78603;BME280;68102;46.068;18.206;2023-03-17T01:47:27;100988.72;;;1.05;57.88
78603;BME280;68102;46.068;18.206;2023-03-17T01:48:01;100995.69;;;1.05;57.70
78603;BME280;68102;46.068;18.206;2023-03-17T01:48:39;100990.47;;;1.05;57.93
78603;BME280;68102;46.068;18.206;2023-03-17T01:49:43;100988.94;;;0.99;58.05
78603;BME280;68102;46.068;18.206;2023-03-17T01:50:16;100989.94;;;0.95;58.00
78603;BME280;68102;46.068;18.206;2023-03-17T01:50:49;100999.44;;;0.96;57.64
78603;BME280;68102;46.068;18.206;2023-03-17T01:52:09;100984.78;;;0.94;58.10
78603;BME280;68102;46.068;18.206;2023-03-17T01:52:43;100996.06;;;0.93;58.33
78603;BME280;68102;46.068;18.206;2023-03-17T01:53:15;100995.22;;;0.92;58.53
78603;BME280;68102;46.068;18.206;2023-03-17T01:53:48;100990.25;;;0.84;58.57
78603;BME280;68102;46.068;18.206;2023-03-17T01:54:43;100994.50;;;0.87;59.00
78603;BME280;68102;46.068;18.206;2023-03-17T01:55:16;100995.34;;;0.87;58.77
78603;BME280;68102;46.068;18.206;2023-03-17T01:55:50;100991.84;;;0.88;58.94
78603;BME280;68102;46.068;18.206;2023-03-17T01:56:23;100989.25;;;0.88;58.43
78603;BME280;68102;46.068;18.206;2023-03-17T01:56:59;100990.06;;;0.90;58.90
78603;BME280;68102;46.068;18.206;2023-03-17T01:57:38;100998.72;;;0.91;58.88
78603;BME280;68102;46.068;18.206;2023-03-17T01:58:13;100990.97;;;0.89;59.25
78603;BME280;68102;46.068;18.206;2023-03-17T01:58:50;100991.81;;;0.90;59.27
78603;BME280;68102;46.068;18.206;2023-03-17T01:59:29;100995.31;;;0.89;59.23
78603;BME280;68102;46.068;18.206;2023-03-17T02:00:38;100997.97;;;0.87;59.28
78603;BME280;68102;46.068;18.206;2023-03-17T02:01:10;100992.75;;;0.87;59.57
78603;BME280;68102;46.068;18.206;2023-03-17T02:01:46;100991.97;;;0.85;59.53
78603;BME280;68102;46.068;18.206;2023-03-17T02:02:27;100988.41;;;0.88;59.09
78603;BME280;68102;46.068;18.206;2023-03-17T02:03:01;100989.31;;;0.87;59.20
78603;BME280;68102;46.068;18.206;2023-03-17T02:03:34;100990.09;;;0.89;59.27
78603;BME280;68102;46.068;18.206;2023-03-17T02:04:07;100986.72;;;0.87;59.48
78603;BME280;68102;46.068;18.206;2023-03-17T02:04:40;100986.75;;;0.85;59.37
78603;BME280;68102;46.068;18.206;2023-03-17T02:05:16;100990.91;;;0.91;59.54
78603;BME280;68102;46.068;18.206;2023-03-17T02:05:50;100984.97;;;0.87;59.94
78603;BME280;68102;46.068;18.206;2023-03-17T02:06:23;100988.25;;;0.94;59.65
78603;BME280;68102;46.068;18.206;2023-03-17T02:06:56;100984.78;;;0.94;59.98
78603;BME280;68102;46.068;18.206;2023-03-17T02:07:29;100987.38;;;0.94;59.66
78603;BME280;68102;46.068;18.206;2023-03-17T02:08:09;100984.97;;;0.87;59.68
78603;BME280;68102;46.068;18.206;2023-03-17T02:08:41;100980.44;;;0.94;60.34
78603;BME280;68102;46.068;18.206;2023-03-17T02:09:14;100989.09;;;0.95;60.05
78603;BME280;68102;46.068;18.206;2023-03-17T02:09:46;100981.41;;;0.90;60.19
78603;BME280;68102;46.068;18.206;2023-03-17T02:10:21;100988.25;;;0.94;60.24
78603;BME280;68102;46.068;18.206;2023-03-17T02:10:55;100984.75;;;0.95;59.93
78603;BME280;68102;46.068;18.206;2023-03-17T02:11:28;100981.38;;;0.91;60.62
78603;BME280;68102;46.068;18.206;2023-03-17T02:12:01;100988.25;;;0.94;60.10
78603;BME280;68102;46.068;18.206;2023-03-17T02:12:35;100979.66;;;0.90;60.08
78603;BME280;68102;46.068;18.206;2023-03-17T02:13:09;100986.50;;;0.95;59.95
78603;BME280;68102;46.068;18.206;2023-03-17T02:13:42;100984.78;;;0.94;60.00
78603;BME280;68102;46.068;18.206;2023-03-17T02:14:15;100983.97;;;0.91;60.03
78603;BME280;68102;46.068;18.206;2023-03-17T02:14:47;100983.00;;;0.96;60.26
78603;BME280;68102;46.068;18.206;2023-03-17T02:15:18;100981.28;;;0.95;59.93
78603;BME280;68102;46.068;18.206;2023-03-17T02:15:51;100982.13;;;0.95;59.80
78603;BME280;68102;46.068;18.206;2023-03-17T02:16:23;100989.88;;;0.97;60.11
78603;BME280;68102;46.068;18.206;2023-03-17T02:16:55;100981.28;;;0.95;60.11
78603;BME280;68102;46.068;18.206;2023-03-17T02:17:28;100982.22;;;0.92;60.19
78603;BME280;68102;46.068;18.206;2023-03-17T02:18:00;100987.38;;;0.94;60.52
78603;BME280;68102;46.068;18.206;2023-03-17T02:18:31;100987.38;;;0.94;60.23
78603;BME280;68102;46.068;18.206;2023-03-17T02:19:04;100993.34;;;0.97;59.86
78603;BME280;68102;46.068;18.206;2023-03-17T02:19:36;100991.50;;;1.01;60.26
78603;BME280;68102;46.068;18.206;2023-03-17T02:22:12;100985.72;;;0.91;60.09
78603;BME280;68102;46.068;18.206;2023-03-17T02:22:48;100990.09;;;0.89;61.10
78603;BME280;68102;46.068;18.206;2023-03-17T02:23:21;100993.59;;;0.88;61.17
78603;BME280;68102;46.068;18.206;2023-03-17T02:23:54;100987.66;;;0.84;61.17
78603;BME280;68102;46.068;18.206;2023-03-17T02:24:55;100987.66;;;0.84;61.48
78603;BME280;68102;46.068;18.206;2023-03-17T02:25:29;100988.50;;;0.85;61.17
78603;BME280;68102;46.068;18.206;2023-03-17T02:26:01;100991.09;;;0.85;61.48
78603;BME280;68102;46.068;18.206;2023-03-17T02:26:35;100989.38;;;0.85;61.71
78603;BME280;68102;46.068;18.206;2023-03-17T02:27:15;100987.72;;;0.83;61.45
78603;BME280;68102;46.068;18.206;2023-03-17T02:27:51;100985.22;;;0.80;61.29
78603;BME280;68102;46.068;18.206;2023-03-17T02:28:29;100986.91;;;0.81;61.61
78603;BME280;68102;46.068;18.206;2023-03-17T02:29:02;100987.06;;;0.76;61.22
78603;BME280;68102;46.068;18.206;2023-03-17T02:29:34;100978.41;;;0.76;61.24
78603;BME280;68102;46.068;18.206;2023-03-17T02:30:09;100984.38;;;0.79;61.77
78603;BME280;68102;46.068;18.206;2023-03-17T02:30:43;100981.75;;;0.79;61.01
78603;BME280;68102;46.068;18.206;2023-03-17T02:31:15;100981.03;;;0.74;61.19
78603;BME280;68102;46.068;18.206;2023-03-17T02:31:47;100982.88;;;0.71;62.00
78603;BME280;68102;46.068;18.206;2023-03-17T02:32:20;100988.94;;;0.71;61.50
78603;BME280;68102;46.068;18.206;2023-03-17T02:32:51;100981.22;;;0.68;61.49
78603;BME280;68102;46.068;18.206;2023-03-17T02:33:23;100988.13;;;0.69;61.53
78603;BME280;68102;46.068;18.206;2023-03-17T02:33:55;100976.19;;;0.64;61.32
78603;BME280;68102;46.068;18.206;2023-03-17T02:34:26;100988.13;;;0.69;61.61
78603;BME280;68102;46.068;18.206;2023-03-17T02:34:58;100983.88;;;0.67;61.51
78603;BME280;68102;46.068;18.206;2023-03-17T02:35:31;100988.22;;;0.66;61.82
78603;BME280;68102;46.068;18.206;2023-03-17T02:36:03;100988.97;;;0.70;62.11
78603;BME280;68102;46.068;18.206;2023-03-17T02:36:35;100990.81;;;0.66;62.32
78603;BME280;68102;46.068;18.206;2023-03-17T02:37:10;100985.69;;;0.65;62.40
78603;BME280;68102;46.068;18.206;2023-03-17T02:37:42;100989.16;;;0.64;62.33
78603;BME280;68102;46.068;18.206;2023-03-17T02:38:17;100983.28;;;0.58;62.57
78603;BME280;68102;46.068;18.206;2023-03-17T02:38:49;100985.09;;;0.55;62.07
78603;BME280;68102;46.068;18.206;2023-03-17T02:39:20;100988.59;;;0.54;62.37
78603;BME280;68102;46.068;18.206;2023-03-17T02:39:53;100990.38;;;0.52;62.46
78603;BME280;68102;46.068;18.206;2023-03-17T02:40:25;100992.06;;;0.53;62.49
78603;BME280;68102;46.068;18.206;2023-03-17T02:40:57;100986.97;;;0.50;62.58
78603;BME280;68102;46.068;18.206;2023-03-17T02:41:29;100979.19;;;0.50;63.04
78603;BME280;68102;46.068;18.206;2023-03-17T02:42:02;100991.28;;;0.51;63.13
78603;BME280;68102;46.068;18.206;2023-03-17T02:42:34;100982.78;;;0.46;63.36
78603;BME280;68102;46.068;18.206;2023-03-17T02:43:06;100996.53;;;0.49;62.65
78603;BME280;68102;46.068;18.206;2023-03-17T02:43:37;100985.31;;;0.47;63.08
78603;BME280;68102;46.068;18.206;2023-03-17T02:44:12;100990.63;;;0.44;63.36
78603;BME280;68102;46.068;18.206;2023-03-17T02:44:44;100996.66;;;0.45;62.94
78603;BME280;68102;46.068;18.206;2023-03-17T02:45:16;100984.66;;;0.41;62.85
78603;BME280;68102;46.068;18.206;2023-03-17T02:45:48;100985.38;;;0.46;63.32
78603;BME280;68102;46.068;18.206;2023-03-17T02:46:19;100986.28;;;0.45;63.48
78603;BME280;68102;46.068;18.206;2023-03-17T02:46:51;100988.06;;;0.43;63.47
78603;BME280;68102;46.068;18.206;2023-03-17T02:47:24;100989.72;;;0.45;63.24
78603;BME280;68102;46.068;18.206;2023-03-17T02:47:56;100989.81;;;0.42;63.53
78603;BME280;68102;46.068;18.206;2023-03-17T02:48:29;100982.06;;;0.41;63.23
78603;BME280;68102;46.068;18.206;2023-03-17T02:49:01;100987.16;;;0.44;63.48
78603;BME280;68102;46.068;18.206;2023-03-17T02:49:35;100983.72;;;0.43;63.69
78603;BME280;68102;46.068;18.206;2023-03-17T02:50:19;100976.78;;;0.44;63.71
78603;BME280;68102;46.068;18.206;2023-03-17T02:50:52;100981.97;;;0.44;63.58
78603;BME280;68102;46.068;18.206;2023-03-17T02:51:24;100986.41;;;0.40;63.80
78603;BME280;68102;46.068;18.206;2023-03-17T02:51:56;101001.06;;;0.43;63.44
78603;BME280;68102;46.068;18.206;2023-03-17T02:52:28;100988.97;;;0.42;63.75
78603;BME280;68102;46.068;18.206;2023-03-17T02:53:00;100984.56;;;0.44;63.14
78603;BME280;68102;46.068;18.206;2023-03-17T02:53:31;100987.13;;;0.45;63.62
78603;BME280;68102;46.068;18.206;2023-03-17T02:54:03;100980.38;;;0.40;63.17
78603;BME280;68102;46.068;18.206;2023-03-17T02:54:35;100987.91;;;0.47;63.41
78603;BME280;68102;46.068;18.206;2023-03-17T02:55:07;100985.31;;;0.47;63.61
78603;BME280;68102;46.068;18.206;2023-03-17T02:55:39;100985.38;;;0.46;63.84
78603;BME280;68102;46.068;18.206;2023-03-17T02:56:11;100983.69;;;0.45;63.59
78603;BME280;68102;46.068;18.206;2023-03-17T02:56:43;100975.97;;;0.42;63.47
78603;BME280;68102;46.068;18.206;2023-03-17T02:57:15;100979.44;;;0.42;63.62
78603;BME280;68102;46.068;18.206;2023-03-17T02:57:47;100988.03;;;0.44;63.91
78603;BME280;68102;46.068;18.206;2023-03-17T02:58:18;100984.53;;;0.45;64.17
78603;BME280;68102;46.068;18.206;2023-03-17T02:58:50;100978.47;;;0.45;63.70
78603;BME280;68102;46.068;18.206;2023-03-17T02:59:22;100980.28;;;0.43;64.16
78603;BME280;68102;46.068;18.206;2023-03-17T02:59:54;100975.19;;;0.40;63.70
78603;BME280;68102;46.068;18.206;2023-03-17T03:00:27;100974.22;;;0.42;63.92
78603;BME280;68102;46.068;18.206;2023-03-17T03:00:59;100977.78;;;0.40;63.96
78603;BME280;68102;46.068;18.206;2023-03-17T03:01:31;100975.97;;;0.42;63.47
78603;BME280;68102;46.068;18.206;2023-03-17T03:02:03;100979.44;;;0.42;63.90